sensor_id;sensor_type;location;lat;lon;timestamp;temperature;humidity
15983;DHT22;14442;50.196;8.096;2022-10-16T00:00:44;20.90;63.00
15983;DHT22;14442;50.196;8.096;2022-10-16T00:03:11;20.90;63.00
15983;DHT22;14442;50.196;8.096;2022-10-16T00:05:39;20.90;63.00
15983;DHT22;14442;50.196;8.096;2022-10-16T00:08:07;20.90;62.90
15983;DHT22;14442;50.196;8.096;2022-10-16T00:10:34;20.90;62.90
15983;DHT22;14442;50.196;8.096;2022-10-16T00:13:03;20.90;63.00
15983;DHT22;14442;50.196;8.096;2022-10-16T00:15:30;20.90;63.10
15983;DHT22;14442;50.196;8.096;2022-10-16T00:17:56;20.90;63.10
15983;DHT22;14442;50.196;8.096;2022-10-16T00:20:23;20.90;63.10
15983;DHT22;14442;50.196;8.096;2022-10-16T00:22:50;20.90;63.00
15983;DHT22;14442;50.196;8.096;2022-10-16T00:25:16;20.90;63.10
15983;DHT22;14442;50.196;8.096;2022-10-16T00:27:43;20.90;63.10
15983;DHT22;14442;50.196;8.096;2022-10-16T00:30:11;20.90;63.20
15983;DHT22;14442;50.196;8.096;2022-10-16T00:32:38;20.80;63.10
15983;DHT22;14442;50.196;8.096;2022-10-16T00:35:05;20.90;63.00
15983;DHT22;14442;50.196;8.096;2022-10-16T00:37:32;20.90;63.00
15983;DHT22;14442;50.196;8.096;2022-10-16T00:39:59;20.90;63.10
15983;DHT22;14442;50.196;8.096;2022-10-16T00:42:25;20.80;62.90
15983;DHT22;14442;50.196;8.096;2022-10-16T00:44:54;20.80;63.00
15983;DHT22;14442;50.196;8.096;2022-10-16T00:47:27;20.80;63.00
15983;DHT22;14442;50.196;8.096;2022-10-16T00:49:59;20.80;63.00
15983;DHT22;14442;50.196;8.096;2022-10-16T00:52:27;20.90;63.10
15983;DHT22;14442;50.196;8.096;2022-10-16T00:54:54;20.80;62.90
15983;DHT22;14442;50.196;8.096;2022-10-16T00:57:21;20.80;63.10
15983;DHT22;14442;50.196;8.096;2022-10-16T00:59:48;20.70;63.00
15983;DHT22;14442;50.196;8.096;2022-10-16T01:02:16;20.70;63.10
15983;DHT22;14442;50.196;8.096;2022-10-16T01:04:47;20.70;63.10
15983;DHT22;14442;50.196;8.096;2022-10-16T01:07:20;20.70;63.20
15983;DHT22;14442;50.196;8.096;2022-10-16T01:10:01;20.70;63.20
15983;DHT22;14442;50.196;8.096;2022-10-16T01:12:37;20.70;63.30
15983;DHT22;14442;50.196;8.096;2022-10-16T01:15:10;20.70;63.30
15983;DHT22;14442;50.196;8.096;2022-10-16T01:17:41;20.70;63.30
15983;DHT22;14442;50.196;8.096;2022-10-16T01:20:17;20.60;63.90
15983;DHT22;14442;50.196;8.096;2022-10-16T01:23:01;20.60;63.20
15983;DHT22;14442;50.196;8.096;2022-10-16T01:25:39;20.60;63.10
15983;DHT22;14442;50.196;8.096;2022-10-16T01:28:13;20.60;63.20
15983;DHT22;14442;50.196;8.096;2022-10-16T01:30:42;20.60;63.10
15983;DHT22;14442;50.196;8.096;2022-10-16T01:33:14;20.60;63.10
15983;DHT22;14442;50.196;8.096;2022-10-16T01:35:45;20.60;63.10
15983;DHT22;14442;50.196;8.096;2022-10-16T01:38:17;20.60;63.20
15983;DHT22;14442;50.196;8.096;2022-10-16T01:40:49;20.60;63.10
15983;DHT22;14442;50.196;8.096;2022-10-16T01:43:20;20.50;63.00
15983;DHT22;14442;50.196;8.096;2022-10-16T01:45:49;20.50;63.00
15983;DHT22;14442;50.196;8.096;2022-10-16T01:48:18;20.60;63.10
15983;DHT22;14442;50.196;8.096;2022-10-16T01:50:52;20.50;63.00
15983;DHT22;14442;50.196;8.096;2022-10-16T01:53:20;20.50;63.10
15983;DHT22;14442;50.196;8.096;2022-10-16T01:55:49;20.50;63.00
15983;DHT22;14442;50.196;8.096;2022-10-16T01:58:17;20.50;63.00
15983;DHT22;14442;50.196;8.096;2022-10-16T02:00:45;20.50;63.00
15983;DHT22;14442;50.196;8.096;2022-10-16T02:03:16;20.50;63.00
15983;DHT22;14442;50.196;8.096;2022-10-16T02:05:47;20.50;63.10
15983;DHT22;14442;50.196;8.096;2022-10-16T02:08:15;20.50;63.00
15983;DHT22;14442;50.196;8.096;2022-10-16T02:10:42;20.50;63.10
15983;DHT22;14442;50.196;8.096;2022-10-16T02:13:12;20.50;63.10
15983;DHT22;14442;50.196;8.096;2022-10-16T02:15:42;20.50;63.00
15983;DHT22;14442;50.196;8.096;2022-10-16T02:18:09;20.50;63.10
15983;DHT22;14442;50.196;8.096;2022-10-16T02:20:40;20.40;62.90
15983;DHT22;14442;50.196;8.096;2022-10-16T02:23:12;20.40;62.90
15983;DHT22;14442;50.196;8.096;2022-10-16T02:25:45;20.40;63.00
15983;DHT22;14442;50.196;8.096;2022-10-16T02:28:17;20.40;63.00
15983;DHT22;14442;50.196;8.096;2022-10-16T02:30:49;20.40;63.00
15983;DHT22;14442;50.196;8.096;2022-10-16T02:33:19;20.40;63.00
15983;DHT22;14442;50.196;8.096;2022-10-16T02:35:49;20.40;63.00
15983;DHT22;14442;50.196;8.096;2022-10-16T02:38:17;20.40;63.00
15983;DHT22;14442;50.196;8.096;2022-10-16T02:40:45;20.40;63.10
15983;DHT22;14442;50.196;8.096;2022-10-16T02:43:12;20.40;63.00
15983;DHT22;14442;50.196;8.096;2022-10-16T02:45:39;20.40;63.00
15983;DHT22;14442;50.196;8.096;2022-10-16T02:48:07;20.40;63.10
15983;DHT22;14442;50.196;8.096;2022-10-16T02:50:34;20.30;63.00
15983;DHT22;14442;50.196;8.096;2022-10-16T02:53:01;20.40;63.00
15983;DHT22;14442;50.196;8.096;2022-10-16T02:55:27;20.40;63.00
15983;DHT22;14442;50.196;8.096;2022-10-16T02:57:54;20.40;63.00
15983;DHT22;14442;50.196;8.096;2022-10-16T03:00:21;20.30;62.90
15983;DHT22;14442;50.196;8.096;2022-10-16T03:02:48;20.30;63.00
15983;DHT22;14442;50.196;8.096;2022-10-16T03:05:16;20.30;63.00
15983;DHT22;14442;50.196;8.096;2022-10-16T03:07:43;20.30;63.00
15983;DHT22;14442;50.196;8.096;2022-10-16T03:10:10;20.30;62.90
15983;DHT22;14442;50.196;8.096;2022-10-16T03:12:36;20.30;63.00
15983;DHT22;14442;50.196;8.096;2022-10-16T03:15:04;20.30;63.00
15983;DHT22;14442;50.196;8.096;2022-10-16T03:17:32;20.30;62.90
15983;DHT22;14442;50.196;8.096;2022-10-16T03:20:00;20.30;62.90
15983;DHT22;14442;50.196;8.096;2022-10-16T03:22:28;20.30;62.90
15983;DHT22;14442;50.196;8.096;2022-10-16T03:24:54;20.30;62.90
15983;DHT22;14442;50.196;8.096;2022-10-16T03:27:21;20.30;62.90
15983;DHT22;14442;50.196;8.096;2022-10-16T03:29:48;20.30;62.90
15983;DHT22;14442;50.196;8.096;2022-10-16T03:32:14;20.30;62.80
15983;DHT22;14442;50.196;8.096;2022-10-16T03:34:41;20.30;62.80
15983;DHT22;14442;50.196;8.096;2022-10-16T03:37:08;20.30;62.80
15983;DHT22;14442;50.196;8.096;2022-10-16T03:39:36;20.30;62.80
15983;DHT22;14442;50.196;8.096;2022-10-16T03:42:02;20.30;62.80
15983;DHT22;14442;50.196;8.096;2022-10-16T03:44:29;20.30;62.80
15983;DHT22;14442;50.196;8.096;2022-10-16T03:46:56;20.30;62.80
15983;DHT22;14442;50.196;8.096;2022-10-16T03:49:22;20.30;62.80
15983;DHT22;14442;50.196;8.096;2022-10-16T03:51:49;20.30;62.80
15983;DHT22;14442;50.196;8.096;2022-10-16T03:54:16;20.30;62.80
15983;DHT22;14442;50.196;8.096;2022-10-16T03:56:44;20.30;62.80
15983;DHT22;14442;50.196;8.096;2022-10-16T03:59:10;20.30;62.90
15983;DHT22;14442;50.196;8.096;2022-10-16T04:01:37;20.30;63.50
15983;DHT22;14442;50.196;8.096;2022-10-16T04:04:04;20.30;62.90
15983;DHT22;14442;50.196;8.096;2022-10-16T04:06:31;20.30;62.80
15983;DHT22;14442;50.196;8.096;2022-10-16T04:08:57;20.30;62.80
15983;DHT22;14442;50.196;8.096;2022-10-16T04:11:24;20.30;62.80
15983;DHT22;14442;50.196;8.096;2022-10-16T04:13:52;20.30;62.80
15983;DHT22;14442;50.196;8.096;2022-10-16T04:16:19;20.20;62.70
15983;DHT22;14442;50.196;8.096;2022-10-16T04:18:45;20.20;62.70
15983;DHT22;14442;50.196;8.096;2022-10-16T04:21:12;20.20;62.80
15983;DHT22;14442;50.196;8.096;2022-10-16T04:23:39;20.30;62.80
15983;DHT22;14442;50.196;8.096;2022-10-16T04:26:05;20.20;62.70
15983;DHT22;14442;50.196;8.096;2022-10-16T04:28:32;20.30;62.90
15983;DHT22;14442;50.196;8.096;2022-10-16T04:31:00;20.20;62.80
15983;DHT22;14442;50.196;8.096;2022-10-16T04:33:29;20.20;62.70
15983;DHT22;14442;50.196;8.096;2022-10-16T04:35:57;20.20;62.80
15983;DHT22;14442;50.196;8.096;2022-10-16T04:38:24;20.30;62.70
15983;DHT22;14442;50.196;8.096;2022-10-16T04:40:50;20.30;62.70
15983;DHT22;14442;50.196;8.096;2022-10-16T04:43:17;20.30;62.70
15983;DHT22;14442;50.196;8.096;2022-10-16T04:45:44;20.30;62.70
15983;DHT22;14442;50.196;8.096;2022-10-16T04:48:12;20.30;62.70
15983;DHT22;14442;50.196;8.096;2022-10-16T04:50:38;20.30;62.80
15983;DHT22;14442;50.196;8.096;2022-10-16T04:53:05;20.30;62.80
15983;DHT22;14442;50.196;8.096;2022-10-16T04:55:32;20.30;63.00
15983;DHT22;14442;50.196;8.096;2022-10-16T04:57:59;20.30;63.20
15983;DHT22;14442;50.196;8.096;2022-10-16T05:00:25;20.30;63.20
15983;DHT22;14442;50.196;8.096;2022-10-16T05:02:53;20.20;63.20
15983;DHT22;14442;50.196;8.096;2022-10-16T05:05:20;20.20;63.20
15983;DHT22;14442;50.196;8.096;2022-10-16T05:07:48;20.20;63.00
15983;DHT22;14442;50.196;8.096;2022-10-16T05:10:15;20.20;62.90
15983;DHT22;14442;50.196;8.096;2022-10-16T05:12:42;20.20;63.00
15983;DHT22;14442;50.196;8.096;2022-10-16T05:15:09;20.10;63.00
15983;DHT22;14442;50.196;8.096;2022-10-16T05:17:37;20.20;63.10
15983;DHT22;14442;50.196;8.096;2022-10-16T05:20:04;20.20;63.00
15983;DHT22;14442;50.196;8.096;2022-10-16T05:22:32;20.20;63.10
15983;DHT22;14442;50.196;8.096;2022-10-16T05:24:59;20.20;63.20
15983;DHT22;14442;50.196;8.096;2022-10-16T05:27:26;20.20;63.10
15983;DHT22;14442;50.196;8.096;2022-10-16T05:29:52;20.20;63.20
15983;DHT22;14442;50.196;8.096;2022-10-16T05:32:19;20.20;63.10
15983;DHT22;14442;50.196;8.096;2022-10-16T05:34:46;20.20;63.10
15983;DHT22;14442;50.196;8.096;2022-10-16T05:37:13;20.20;63.10
15983;DHT22;14442;50.196;8.096;2022-10-16T05:39:41;20.20;63.10
15983;DHT22;14442;50.196;8.096;2022-10-16T05:42:07;20.20;63.10
15983;DHT22;14442;50.196;8.096;2022-10-16T05:44:34;20.20;63.10
15983;DHT22;14442;50.196;8.096;2022-10-16T05:47:01;20.20;62.90
15983;DHT22;14442;50.196;8.096;2022-10-16T05:49:27;20.10;62.90
15983;DHT22;14442;50.196;8.096;2022-10-16T05:51:54;20.20;63.10
15983;DHT22;14442;50.196;8.096;2022-10-16T05:54:21;20.10;63.00
15983;DHT22;14442;50.196;8.096;2022-10-16T05:56:49;20.10;63.00
15983;DHT22;14442;50.196;8.096;2022-10-16T05:59:15;20.20;63.10
15983;DHT22;14442;50.196;8.096;2022-10-16T06:01:42;20.20;62.90
15983;DHT22;14442;50.196;8.096;2022-10-16T06:04:09;20.20;63.10
15983;DHT22;14442;50.196;8.096;2022-10-16T06:06:36;20.20;63.00
15983;DHT22;14442;50.196;8.096;2022-10-16T06:09:03;20.10;63.00
15983;DHT22;14442;50.196;8.096;2022-10-16T06:11:31;20.10;63.20
15983;DHT22;14442;50.196;8.096;2022-10-16T06:14:01;20.10;63.00
15983;DHT22;14442;50.196;8.096;2022-10-16T06:16:32;20.10;62.90
15983;DHT22;14442;50.196;8.096;2022-10-16T06:18:59;20.10;62.90
15983;DHT22;14442;50.196;8.096;2022-10-16T06:21:28;20.10;62.80
15983;DHT22;14442;50.196;8.096;2022-10-16T06:23:55;20.20;63.00
15983;DHT22;14442;50.196;8.096;2022-10-16T06:26:24;20.10;62.80
15983;DHT22;14442;50.196;8.096;2022-10-16T06:28:51;20.10;62.70
15983;DHT22;14442;50.196;8.096;2022-10-16T06:31:19;20.10;62.70
15983;DHT22;14442;50.196;8.096;2022-10-16T06:33:50;20.10;62.70
15983;DHT22;14442;50.196;8.096;2022-10-16T06:36:17;20.20;62.70
15983;DHT22;14442;50.196;8.096;2022-10-16T06:38:44;20.10;62.60
15983;DHT22;14442;50.196;8.096;2022-10-16T06:41:14;20.20;62.70
15983;DHT22;14442;50.196;8.096;2022-10-16T06:43:41;20.10;62.60
15983;DHT22;14442;50.196;8.096;2022-10-16T06:46:10;20.10;62.60
15983;DHT22;14442;50.196;8.096;2022-10-16T06:48:39;20.10;62.60
15983;DHT22;14442;50.196;8.096;2022-10-16T06:51:09;20.10;62.60
15983;DHT22;14442;50.196;8.096;2022-10-16T06:53:37;20.10;62.60
15983;DHT22;14442;50.196;8.096;2022-10-16T06:56:08;20.10;62.60
15983;DHT22;14442;50.196;8.096;2022-10-16T06:58:35;20.20;62.70
15983;DHT22;14442;50.196;8.096;2022-10-16T07:01:02;20.10;62.60
15983;DHT22;14442;50.196;8.096;2022-10-16T07:03:29;20.10;62.50
15983;DHT22;14442;50.196;8.096;2022-10-16T07:05:57;20.10;62.50
15983;DHT22;14442;50.196;8.096;2022-10-16T07:08:27;20.10;62.50
15983;DHT22;14442;50.196;8.096;2022-10-16T07:10:58;20.10;62.60
15983;DHT22;14442;50.196;8.096;2022-10-16T07:13:25;20.10;62.50
15983;DHT22;14442;50.196;8.096;2022-10-16T07:15:52;20.10;62.50
15983;DHT22;14442;50.196;8.096;2022-10-16T07:18:19;20.10;62.60
15983;DHT22;14442;50.196;8.096;2022-10-16T07:20:46;20.10;62.50
15983;DHT22;14442;50.196;8.096;2022-10-16T07:23:13;20.10;62.60
15983;DHT22;14442;50.196;8.096;2022-10-16T07:25:40;20.10;62.50
15983;DHT22;14442;50.196;8.096;2022-10-16T07:28:07;20.10;62.60
15983;DHT22;14442;50.196;8.096;2022-10-16T07:30:35;20.10;62.60
15983;DHT22;14442;50.196;8.096;2022-10-16T07:33:02;20.10;62.60
15983;DHT22;14442;50.196;8.096;2022-10-16T07:35:29;20.10;62.60
15983;DHT22;14442;50.196;8.096;2022-10-16T07:37:55;20.10;62.60
15983;DHT22;14442;50.196;8.096;2022-10-16T07:40:23;20.10;62.60
15983;DHT22;14442;50.196;8.096;2022-10-16T07:42:52;20.10;62.60
15983;DHT22;14442;50.196;8.096;2022-10-16T07:45:19;20.10;62.60
15983;DHT22;14442;50.196;8.096;2022-10-16T07:47:45;20.10;62.60
15983;DHT22;14442;50.196;8.096;2022-10-16T07:50:12;20.10;62.60
15983;DHT22;14442;50.196;8.096;2022-10-16T07:52:39;20.10;62.60
15983;DHT22;14442;50.196;8.096;2022-10-16T07:55:06;20.10;62.60
15983;DHT22;14442;50.196;8.096;2022-10-16T07:57:34;20.10;62.60
15983;DHT22;14442;50.196;8.096;2022-10-16T08:00:01;20.10;62.60
15983;DHT22;14442;50.196;8.096;2022-10-16T08:02:27;20.10;62.60
15983;DHT22;14442;50.196;8.096;2022-10-16T08:04:54;20.10;62.60
15983;DHT22;14442;50.196;8.096;2022-10-16T08:07:21;20.10;62.60
15983;DHT22;14442;50.196;8.096;2022-10-16T08:09:49;20.10;62.60
15983;DHT22;14442;50.196;8.096;2022-10-16T08:12:16;20.10;62.60
15983;DHT22;14442;50.196;8.096;2022-10-16T08:14:44;20.10;62.60
15983;DHT22;14442;50.196;8.096;2022-10-16T08:17:14;20.10;63.40
15983;DHT22;14442;50.196;8.096;2022-10-16T08:19:44;20.10;62.60
15983;DHT22;14442;50.196;8.096;2022-10-16T08:22:11;20.10;62.60
15983;DHT22;14442;50.196;8.096;2022-10-16T08:24:37;20.10;62.80
15983;DHT22;14442;50.196;8.096;2022-10-16T08:27:04;20.10;62.80
15983;DHT22;14442;50.196;8.096;2022-10-16T08:29:31;20.20;63.00
15983;DHT22;14442;50.196;8.096;2022-10-16T08:31:59;20.20;63.20
15983;DHT22;14442;50.196;8.096;2022-10-16T08:34:25;20.20;63.40
15983;DHT22;14442;50.196;8.096;2022-10-16T08:36:53;20.20;63.40
15983;DHT22;14442;50.196;8.096;2022-10-16T08:39:19;20.20;63.40
15983;DHT22;14442;50.196;8.096;2022-10-16T08:42:11;20.10;63.20
15983;DHT22;14442;50.196;8.096;2022-10-16T08:45:04;20.10;63.20
15983;DHT22;14442;50.196;8.096;2022-10-16T08:47:45;20.10;63.20
15983;DHT22;14442;50.196;8.096;2022-10-16T08:50:20;20.10;63.10
15983;DHT22;14442;50.196;8.096;2022-10-16T08:52:48;20.10;63.00
15983;DHT22;14442;50.196;8.096;2022-10-16T08:55:28;20.10;63.20
15983;DHT22;14442;50.196;8.096;2022-10-16T08:57:57;20.10;63.40
15983;DHT22;14442;50.196;8.096;2022-10-16T09:00:24;20.20;63.30
15983;DHT22;14442;50.196;8.096;2022-10-16T09:02:59;20.10;63.00
15983;DHT22;14442;50.196;8.096;2022-10-16T09:05:52;20.20;63.10
15983;DHT22;14442;50.196;8.096;2022-10-16T09:08:30;20.20;63.10
15983;DHT22;14442;50.196;8.096;2022-10-16T09:11:07;20.20;64.70
15983;DHT22;14442;50.196;8.096;2022-10-16T09:13:43;20.20;64.90
15983;DHT22;14442;50.196;8.096;2022-10-16T09:16:18;20.30;65.40
15983;DHT22;14442;50.196;8.096;2022-10-16T09:18:52;20.30;65.40
15983;DHT22;14442;50.196;8.096;2022-10-16T09:21:23;20.30;65.20
15983;DHT22;14442;50.196;8.096;2022-10-16T09:23:52;20.30;65.10
15983;DHT22;14442;50.196;8.096;2022-10-16T09:26:20;20.40;65.10
15983;DHT22;14442;50.196;8.096;2022-10-16T09:28:47;20.30;65.00
15983;DHT22;14442;50.196;8.096;2022-10-16T09:31:18;20.30;64.70
15983;DHT22;14442;50.196;8.096;2022-10-16T09:33:48;20.30;64.80
15983;DHT22;14442;50.196;8.096;2022-10-16T09:36:17;20.40;65.00
15983;DHT22;14442;50.196;8.096;2022-10-16T09:38:44;20.40;65.00
15983;DHT22;14442;50.196;8.096;2022-10-16T09:41:16;20.30;64.70
15983;DHT22;14442;50.196;8.096;2022-10-16T09:43:48;20.30;64.80
15983;DHT22;14442;50.196;8.096;2022-10-16T09:46:26;20.40;65.10
15983;DHT22;14442;50.196;8.096;2022-10-16T09:48:57;20.40;65.30
15983;DHT22;14442;50.196;8.096;2022-10-16T09:51:26;20.40;65.40
15983;DHT22;14442;50.196;8.096;2022-10-16T09:53:56;20.40;65.30
15983;DHT22;14442;50.196;8.096;2022-10-16T09:56:25;20.50;65.40
15983;DHT22;14442;50.196;8.096;2022-10-16T09:58:54;20.50;65.30
15983;DHT22;14442;50.196;8.096;2022-10-16T10:01:22;20.50;65.30
15983;DHT22;14442;50.196;8.096;2022-10-16T10:03:50;20.50;65.30
15983;DHT22;14442;50.196;8.096;2022-10-16T10:06:22;20.50;65.20
15983;DHT22;14442;50.196;8.096;2022-10-16T10:08:58;20.50;65.10
15983;DHT22;14442;50.196;8.096;2022-10-16T10:11:42;20.70;65.40
15983;DHT22;14442;50.196;8.096;2022-10-16T10:14:17;20.50;65.00
15983;DHT22;14442;50.196;8.096;2022-10-16T10:16:45;20.60;65.10
15983;DHT22;14442;50.196;8.096;2022-10-16T10:19:15;20.60;65.10
15983;DHT22;14442;50.196;8.096;2022-10-16T10:21:43;20.60;65.00
15983;DHT22;14442;50.196;8.096;2022-10-16T10:24:12;20.60;65.10
15983;DHT22;14442;50.196;8.096;2022-10-16T10:26:44;20.60;65.10
15983;DHT22;14442;50.196;8.096;2022-10-16T10:29:20;20.60;65.10
15983;DHT22;14442;50.196;8.096;2022-10-16T10:31:57;20.50;65.00
15983;DHT22;14442;50.196;8.096;2022-10-16T10:34:42;20.60;65.00
15983;DHT22;14442;50.196;8.096;2022-10-16T10:37:23;20.60;65.00
15983;DHT22;14442;50.196;8.096;2022-10-16T10:40:00;20.60;64.90
15983;DHT22;14442;50.196;8.096;2022-10-16T10:42:32;20.60;64.80
15983;DHT22;14442;50.196;8.096;2022-10-16T10:45:17;20.60;64.80
15983;DHT22;14442;50.196;8.096;2022-10-16T10:47:54;20.60;64.80
15983;DHT22;14442;50.196;8.096;2022-10-16T10:50:31;20.70;64.80
15983;DHT22;14442;50.196;8.096;2022-10-16T10:53:09;20.60;64.70
15983;DHT22;14442;50.196;8.096;2022-10-16T10:55:43;20.60;64.70
15983;DHT22;14442;50.196;8.096;2022-10-16T10:58:26;20.70;64.70
15983;DHT22;14442;50.196;8.096;2022-10-16T11:00:57;20.60;64.60
15983;DHT22;14442;50.196;8.096;2022-10-16T11:03:50;20.70;64.60
15983;DHT22;14442;50.196;8.096;2022-10-16T11:06:25;20.60;64.60
15983;DHT22;14442;50.196;8.096;2022-10-16T11:08:58;20.70;64.70
15983;DHT22;14442;50.196;8.096;2022-10-16T11:11:31;20.70;64.70
15983;DHT22;14442;50.196;8.096;2022-10-16T11:14:02;20.70;64.70
15983;DHT22;14442;50.196;8.096;2022-10-16T11:16:32;20.70;64.70
15983;DHT22;14442;50.196;8.096;2022-10-16T11:19:05;20.70;64.70
15983;DHT22;14442;50.196;8.096;2022-10-16T11:21:55;20.70;64.60
15983;DHT22;14442;50.196;8.096;2022-10-16T11:24:35;20.70;64.70
15983;DHT22;14442;50.196;8.096;2022-10-16T11:27:08;20.80;64.80
15983;DHT22;14442;50.196;8.096;2022-10-16T11:29:35;20.80;64.70
15983;DHT22;14442;50.196;8.096;2022-10-16T11:32:18;20.80;64.70
15983;DHT22;14442;50.196;8.096;2022-10-16T11:34:49;20.80;64.60
15983;DHT22;14442;50.196;8.096;2022-10-16T11:37:20;20.80;64.30
15983;DHT22;14442;50.196;8.096;2022-10-16T11:39:50;20.80;64.30
15983;DHT22;14442;50.196;8.096;2022-10-16T11:42:21;20.80;64.30
15983;DHT22;14442;50.196;8.096;2022-10-16T11:44:55;20.70;64.10
15983;DHT22;14442;50.196;8.096;2022-10-16T11:47:30;20.70;64.20
15983;DHT22;14442;50.196;8.096;2022-10-16T11:50:00;20.70;64.10
15983;DHT22;14442;50.196;8.096;2022-10-16T11:52:33;20.70;64.10
15983;DHT22;14442;50.196;8.096;2022-10-16T11:55:14;20.60;64.00
15983;DHT22;14442;50.196;8.096;2022-10-16T11:57:44;20.70;64.10
15983;DHT22;14442;50.196;8.096;2022-10-16T12:00:21;20.80;64.10
15983;DHT22;14442;50.196;8.096;2022-10-16T12:02:54;20.70;64.00
15983;DHT22;14442;50.196;8.096;2022-10-16T12:05:27;20.80;64.20
15983;DHT22;14442;50.196;8.096;2022-10-16T12:08:06;20.80;64.10
15983;DHT22;14442;50.196;8.096;2022-10-16T12:10:36;20.80;64.20
15983;DHT22;14442;50.196;8.096;2022-10-16T12:13:04;20.90;64.30
15983;DHT22;14442;50.196;8.096;2022-10-16T12:15:33;20.90;64.30
15983;DHT22;14442;50.196;8.096;2022-10-16T12:18:00;21.00;64.40
15983;DHT22;14442;50.196;8.096;2022-10-16T12:20:29;21.00;64.80
15983;DHT22;14442;50.196;8.096;2022-10-16T12:22:59;21.00;64.60
15983;DHT22;14442;50.196;8.096;2022-10-16T12:25:29;21.00;64.60
15983;DHT22;14442;50.196;8.096;2022-10-16T12:28:03;21.00;64.50
15983;DHT22;14442;50.196;8.096;2022-10-16T12:30:32;21.00;64.60
15983;DHT22;14442;50.196;8.096;2022-10-16T12:33:01;21.00;64.60
15983;DHT22;14442;50.196;8.096;2022-10-16T12:35:30;21.00;64.60
15983;DHT22;14442;50.196;8.096;2022-10-16T12:38:08;21.00;64.50
15983;DHT22;14442;50.196;8.096;2022-10-16T12:40:42;21.00;64.30
15983;DHT22;14442;50.196;8.096;2022-10-16T12:43:38;21.10;64.50
15983;DHT22;14442;50.196;8.096;2022-10-16T12:46:36;21.10;64.50
15983;DHT22;14442;50.196;8.096;2022-10-16T12:49:21;21.00;64.30
15983;DHT22;14442;50.196;8.096;2022-10-16T12:51:49;21.10;64.40
15983;DHT22;14442;50.196;8.096;2022-10-16T12:54:19;21.10;64.30
15983;DHT22;14442;50.196;8.096;2022-10-16T12:56:58;21.10;64.30
15983;DHT22;14442;50.196;8.096;2022-10-16T12:59:38;21.10;64.30
15983;DHT22;14442;50.196;8.096;2022-10-16T13:02:34;21.10;64.30
15983;DHT22;14442;50.196;8.096;2022-10-16T13:05:16;21.10;64.30
15983;DHT22;14442;50.196;8.096;2022-10-16T13:07:56;21.20;64.50
15983;DHT22;14442;50.196;8.096;2022-10-16T13:10:30;21.20;64.50
15983;DHT22;14442;50.196;8.096;2022-10-16T13:13:32;21.10;64.30
15983;DHT22;14442;50.196;8.096;2022-10-16T13:16:16;21.20;64.40
15983;DHT22;14442;50.196;8.096;2022-10-16T13:18:55;21.20;64.40
15983;DHT22;14442;50.196;8.096;2022-10-16T13:21:34;21.20;64.10
15983;DHT22;14442;50.196;8.096;2022-10-16T13:24:12;21.20;64.10
15983;DHT22;14442;50.196;8.096;2022-10-16T13:26:46;21.20;64.30
15983;DHT22;14442;50.196;8.096;2022-10-16T13:29:15;21.20;64.30
15983;DHT22;14442;50.196;8.096;2022-10-16T13:31:44;21.20;64.30
15983;DHT22;14442;50.196;8.096;2022-10-16T13:34:15;21.20;64.10
15983;DHT22;14442;50.196;8.096;2022-10-16T13:36:44;21.10;63.90
15983;DHT22;14442;50.196;8.096;2022-10-16T13:39:13;21.10;63.90
15983;DHT22;14442;50.196;8.096;2022-10-16T13:41:42;21.10;63.90
15983;DHT22;14442;50.196;8.096;2022-10-16T13:44:15;21.10;64.00
15983;DHT22;14442;50.196;8.096;2022-10-16T13:46:43;21.10;64.10
15983;DHT22;14442;50.196;8.096;2022-10-16T13:49:15;21.20;64.30
15983;DHT22;14442;50.196;8.096;2022-10-16T13:51:47;21.20;64.40
15983;DHT22;14442;50.196;8.096;2022-10-16T13:54:19;21.20;64.50
15983;DHT22;14442;50.196;8.096;2022-10-16T13:56:46;21.10;64.50
15983;DHT22;14442;50.196;8.096;2022-10-16T13:59:24;21.20;64.50
15983;DHT22;14442;50.196;8.096;2022-10-16T14:01:54;21.10;64.40
15983;DHT22;14442;50.196;8.096;2022-10-16T14:04:22;21.10;64.40
15983;DHT22;14442;50.196;8.096;2022-10-16T14:06:50;21.10;64.60
15983;DHT22;14442;50.196;8.096;2022-10-16T14:09:22;21.20;64.60
15983;DHT22;14442;50.196;8.096;2022-10-16T14:11:50;21.10;64.60
15983;DHT22;14442;50.196;8.096;2022-10-16T14:14:18;21.10;64.60
15983;DHT22;14442;50.196;8.096;2022-10-16T14:16:45;21.10;64.60
15983;DHT22;14442;50.196;8.096;2022-10-16T14:19:19;21.10;64.70
15983;DHT22;14442;50.196;8.096;2022-10-16T14:21:47;21.10;64.70
15983;DHT22;14442;50.196;8.096;2022-10-16T14:24:24;21.10;64.60
15983;DHT22;14442;50.196;8.096;2022-10-16T14:26:51;21.10;64.60
15983;DHT22;14442;50.196;8.096;2022-10-16T14:29:20;21.10;64.50
15983;DHT22;14442;50.196;8.096;2022-10-16T14:31:54;21.10;64.50
15983;DHT22;14442;50.196;8.096;2022-10-16T14:34:28;21.10;64.50
15983;DHT22;14442;50.196;8.096;2022-10-16T14:36:56;21.10;64.60
15983;DHT22;14442;50.196;8.096;2022-10-16T14:39:25;21.10;64.60
15983;DHT22;14442;50.196;8.096;2022-10-16T14:41:55;21.00;64.50
15983;DHT22;14442;50.196;8.096;2022-10-16T14:44:27;21.10;64.50
15983;DHT22;14442;50.196;8.096;2022-10-16T14:46:54;21.10;64.50
15983;DHT22;14442;50.196;8.096;2022-10-16T14:49:22;21.10;64.60
15983;DHT22;14442;50.196;8.096;2022-10-16T14:51:50;21.10;64.60
15983;DHT22;14442;50.196;8.096;2022-10-16T14:54:18;21.10;64.60
15983;DHT22;14442;50.196;8.096;2022-10-16T14:56:47;21.10;64.50
15983;DHT22;14442;50.196;8.096;2022-10-16T14:59:17;21.10;64.60
15983;DHT22;14442;50.196;8.096;2022-10-16T15:01:45;21.10;64.60
15983;DHT22;14442;50.196;8.096;2022-10-16T15:04:13;21.00;64.50
15983;DHT22;14442;50.196;8.096;2022-10-16T15:06:40;21.10;64.70
15983;DHT22;14442;50.196;8.096;2022-10-16T15:09:08;21.10;64.70
15983;DHT22;14442;50.196;8.096;2022-10-16T15:11:36;21.10;64.70
15983;DHT22;14442;50.196;8.096;2022-10-16T15:14:03;21.10;64.70
15983;DHT22;14442;50.196;8.096;2022-10-16T15:16:30;21.10;64.80
15983;DHT22;14442;50.196;8.096;2022-10-16T15:18:57;21.10;64.80
15983;DHT22;14442;50.196;8.096;2022-10-16T15:21:25;21.10;64.80
15983;DHT22;14442;50.196;8.096;2022-10-16T15:23:52;21.10;64.80
15983;DHT22;14442;50.196;8.096;2022-10-16T15:26:20;21.10;64.80
15983;DHT22;14442;50.196;8.096;2022-10-16T15:28:47;21.10;64.80
15983;DHT22;14442;50.196;8.096;2022-10-16T15:31:13;21.10;64.80
15983;DHT22;14442;50.196;8.096;2022-10-16T15:33:40;21.00;64.70
15983;DHT22;14442;50.196;8.096;2022-10-16T15:36:07;21.10;65.50
15983;DHT22;14442;50.196;8.096;2022-10-16T15:38:34;21.00;64.80
15983;DHT22;14442;50.196;8.096;2022-10-16T15:41:01;21.10;64.80
15983;DHT22;14442;50.196;8.096;2022-10-16T15:43:29;21.00;64.70
15983;DHT22;14442;50.196;8.096;2022-10-16T15:46:01;21.00;65.20
15983;DHT22;14442;50.196;8.096;2022-10-16T15:48:29;20.90;64.60